Aviation Digital Data Service (ADDS)

Output produced by METARs form (0637 UTC 27 March 2017)
found at http://www.aviationweather.gov/adds/metars/
 
EEEI 270550Z 29010KT CAVOK 04/M01 Q1012 R24/190095 NOSIG
TAF EEEI 270500Z 2706/2806 29012KT CAVOK 
     TEMPO 2710/2716 26014G24KT BKN016 
     PROB30 
     TEMPO 2713/2715 7000 RA BKN015 BKN022 
     TEMPO 2716/2800 33022G40KT 
     BECMG 2800/2802 34014G24KT
       
EEKA 270550Z 29007KT CAVOK 04/00 Q1015
TAF EEKA 270300Z 2704/2710 31015KT CAVOK 
     BECMG 2708/2710 25016G26KT 9999 BKN020
       
EEKE 270550Z 31006KT 260V340 CAVOK 04/00 Q1016 R17/0///95
TAF EEKE 270500Z 2706/2712 31012KT CAVOK
       
EEPU 270550Z 28008KT CAVOK 04/M01 Q1013
EETN 270620Z 30013KT 280V340 CAVOK 04/M02 Q1012 R08/15//95 NOSIG
TAF EETN 270530Z 2706/2806 30014KT CAVOK 
     BECMG 2710/2712 24015KT 9999 BKN030 
     BECMG 2713/2715 27022G32KT 
     BECMG 2718/2720 33020G30KT 
     BECMG 2800/2802 34016G26KT
       
EETU 270550Z AUTO 30009KT 270V340 9999 NCD 03/M04 Q1010